Time;durP1;ratioP1;P1;durP2;ratioP2;P2;SDS_P1;SDS_P2;PMS_P1;PMS_P2;Temp;Humidity;BMP_temperature;BMP_pressure;BME280_temperature;BME280_humidity;BME280_pressure;Samples;Min_cycle;Max_cycle;Signal;HPM_P1;HPM_P2
2022/04/24 00:02:01;;;;;;;6.00;3.97;;;;;;;19.58;30.76;100482.69;5049112;28;20032;-74
2022/04/24 00:04:26;;;;;;;5.53;3.83;;;;;;;19.77;30.90;100479.91;5049742;28;20025;-74
2022/04/24 00:06:53;;;;;;;6.07;4.30;;;;;;;19.61;30.64;100479.88;5048307;28;20024;-74
2022/04/24 00:09:22;;;;;;;5.80;3.67;;;;;;;19.06;31.91;100473.03;5051116;28;20017;-74
2022/04/24 00:11:47;;;;;;;5.20;3.63;;;;;;;20.29;30.96;100470.03;5050007;28;20506;-74
2022/04/24 00:14:14;;;;;;;6.17;4.43;;;;;;;20.07;30.75;100470.38;5048912;28;20021;-74
2022/04/24 00:16:40;;;;;;;5.63;4.30;;;;;;;19.69;31.20;100474.16;5048953;28;20123;-75
2022/04/24 00:19:06;;;;;;;3.90;3.50;;;;;;;19.56;31.18;100475.75;5049367;28;20468;-74
2022/04/24 00:21:32;;;;;;;5.00;3.70;;;;;;;19.02;32.01;100470.63;5047949;28;20603;-74
2022/04/24 00:23:58;;;;;;;6.17;3.70;;;;;;;19.22;31.78;100473.09;5049168;28;20031;-74
2022/04/24 00:26:24;;;;;;;5.23;3.93;;;;;;;20.21;30.77;100466.94;5049323;28;20021;-74
2022/04/24 00:28:49;;;;;;;5.07;4.17;;;;;;;19.94;30.97;100471.06;5047898;28;20029;-74
2022/04/24 00:31:15;;;;;;;5.30;4.07;;;;;;;20.17;30.91;100464.47;5049516;28;20017;-74
2022/04/24 00:33:40;;;;;;;4.30;3.80;;;;;;;18.72;32.44;100469.38;5048782;28;20048;-74
2022/04/24 00:36:06;;;;;;;5.07;3.50;;;;;;;18.91;32.21;100474.66;5049956;28;20024;-74
2022/04/24 00:38:33;;;;;;;4.70;3.87;;;;;;;18.43;33.40;100474.31;5048790;28;20571;-74
2022/04/24 00:40:58;;;;;;;6.30;4.50;;;;;;;19.03;32.39;100470.53;5048966;28;20031;-74
2022/04/24 00:43:24;;;;;;;5.10;3.70;;;;;;;20.15;30.88;100463.72;5048424;28;20025;-74
2022/04/24 00:45:59;;;;;;;9.00;4.70;;;;;;;19.21;31.97;100459.94;5048711;28;20400;-74
2022/04/24 00:48:25;;;;;;;6.70;4.67;;;;;;;18.51;33.43;100459.88;5050487;28;20083;-75
2022/04/24 00:50:50;;;;;;;7.83;4.87;;;;;;;18.48;33.33;100468.81;5048142;28;20453;-74
2022/04/24 00:53:16;;;;;;;5.87;4.23;;;;;;;18.51;33.48;100466.03;5048774;28;20112;-74
2022/04/24 00:55:41;;;;;;;6.40;4.47;;;;;;;19.40;32.10;100458.03;5048381;28;20429;-74
2022/04/24 00:58:07;;;;;;;5.33;4.20;;;;;;;20.19;30.90;100452.94;5032370;28;20496;-74
2022/04/24 01:00:32;;;;;;;6.33;4.13;;;;;;;20.56;30.77;100454.31;5052856;28;20033;-74
2022/04/24 01:02:59;;;;;;;6.10;4.13;;;;;;;20.07;31.03;100450.03;5052597;28;20025;-75
2022/04/24 01:05:25;;;;;;;7.23;4.50;;;;;;;19.68;32.05;100448.59;5052522;28;20025;-74
2022/04/24 01:07:50;;;;;;;6.37;4.30;;;;;;;19.20;32.88;100450.25;5052435;28;20021;-73
2022/04/24 01:10:15;;;;;;;7.17;4.30;;;;;;;19.13;33.02;100452.38;5052338;28;20487;-75
2022/04/24 01:12:41;;;;;;;5.70;4.43;;;;;;;19.45;32.64;100450.69;5053834;28;20381;-74
2022/04/24 01:15:07;;;;;;;6.47;5.43;;;;;;;20.05;31.84;100446.59;5052669;28;20055;-74
2022/04/24 01:17:33;;;;;;;6.83;4.93;;;;;;;19.35;33.00;100462.69;5052150;28;20086;-74
2022/04/24 01:19:58;;;;;;;7.60;5.20;;;;;;;19.60;32.93;100456.09;5052599;28;20021;-74
2022/04/24 01:22:24;;;;;;;6.63;4.63;;;;;;;19.15;33.42;100454.00;5052518;28;20045;-74
2022/04/24 01:24:49;;;;;;;7.47;5.07;;;;;;;18.68;34.63;100457.25;5051441;28;20025;-74
2022/04/24 01:27:14;;;;;;;7.00;5.20;;;;;;;18.56;34.69;100458.72;5052666;28;20125;-74
2022/04/24 01:29:40;;;;;;;8.43;5.30;;;;;;;19.30;33.97;100459.44;5053441;28;20021;-74
2022/04/24 01:32:06;;;;;;;6.43;5.40;;;;;;;19.55;33.28;100452.81;5052166;28;20017;-74
2022/04/24 01:34:31;;;;;;;7.97;5.70;;;;;;;19.24;34.31;100455.31;5053541;28;20425;-74
2022/04/24 01:36:56;;;;;;;8.40;5.43;;;;;;;19.11;34.16;100460.41;5052237;28;20025;-74
2022/04/24 01:39:22;;;;;;;6.67;5.50;;;;;;;18.51;34.83;100462.53;5051440;28;20075;-74
2022/04/24 01:41:47;;;;;;;6.83;5.17;;;;;;;18.64;35.17;100466.25;5085437;28;20347;-74
2022/04/24 01:44:13;;;;;;;8.53;5.97;;;;;;;18.63;35.15;100459.28;5052185;28;20027;-74
2022/04/24 01:46:38;;;;;;;7.93;5.40;;;;;;;17.83;36.14;100460.41;5051151;28;20025;-74
2022/04/24 01:49:04;;;;;;;9.07;5.90;;;;;;;17.53;37.26;100460.88;5052620;28;20113;-74
2022/04/24 01:51:30;;;;;;;8.93;5.97;;;;;;;17.95;36.55;100462.50;5053275;28;20106;-74
2022/04/24 01:53:55;;;;;;;8.90;6.13;;;;;;;18.01;36.41;100456.94;5051248;28;20051;-73
2022/04/24 01:56:20;;;;;;;8.23;5.97;;;;;;;17.12;37.69;100462.63;5052198;28;20021;-74
2022/04/24 01:58:46;;;;;;;8.53;6.43;;;;;;;18.25;36.06;100456.72;5051814;28;20009;-74
2022/04/24 02:01:11;;;;;;;10.40;6.80;;;;;;;18.10;36.84;100461.78;5051377;28;20450;-74
2022/04/24 02:03:37;;;;;;;11.80;6.37;;;;;;;17.72;38.10;100459.13;5052884;28;20036;-74
2022/04/24 02:06:04;;;;;;;10.93;6.73;;;;;;;17.89;37.56;100458.34;5051934;28;20410;-74
2022/04/24 02:08:34;;;;;;;9.77;6.70;;;;;;;16.86;39.33;100465.50;5052353;28;20333;-74
2022/04/24 02:11:00;;;;;;;10.40;7.00;;;;;;;17.43;38.70;100465.72;5050189;28;20036;-74
2022/04/24 02:13:26;;;;;;;10.50;6.80;;;;;;;18.48;37.08;100460.88;5052379;28;20021;-74
2022/04/24 02:15:51;;;;;;;11.37;7.43;;;;;;;17.98;37.97;100467.66;5051296;28;20107;-73
2022/04/24 02:18:16;;;;;;;10.07;7.43;;;;;;;18.00;38.63;100465.81;5051602;28;20119;-73
2022/04/24 02:20:42;;;;;;;10.67;7.57;;;;;;;18.24;37.32;100473.50;5050134;28;20441;-72
2022/04/24 02:23:08;;;;;;;12.37;7.50;;;;;;;18.68;36.90;100470.47;5051912;28;20084;-73
2022/04/24 02:25:34;;;;;;;13.60;8.13;;;;;;;17.94;37.85;100466.94;5051416;28;20033;-73
2022/04/24 02:27:59;;;;;;;11.77;7.80;;;;;;;17.27;39.37;100470.81;5050593;28;20025;-74
2022/04/24 02:30:27;;;;;;;13.87;8.27;;;;;;;18.04;38.85;100466.50;5034935;28;20051;-73
2022/04/24 02:32:58;;;;;;;15.27;9.07;;;;;;;17.54;39.80;100474.00;5052147;28;20111;-73
2022/04/24 02:35:25;;;;;;;13.33;7.80;;;;;;;16.98;41.03;100469.41;5050655;28;20023;-73
2022/04/24 02:37:50;;;;;;;11.67;7.93;;;;;;;18.13;38.78;100464.31;5050967;28;20385;-73
2022/04/24 02:40:21;;;;;;;13.27;8.27;;;;;;;18.25;39.01;100467.28;5052672;28;20024;-72
2022/04/24 02:42:46;;;;;;;13.83;9.00;;;;;;;17.38;39.86;100473.84;5050118;28;20158;-73
2022/04/24 02:45:11;;;;;;;15.30;9.43;;;;;;;18.17;38.81;100464.16;5051702;28;20544;-73
2022/04/24 02:47:38;;;;;;;19.03;9.60;;;;;;;16.81;41.49;100467.47;5050603;28;20025;-74
2022/04/24 02:50:04;;;;;;;16.47;9.47;;;;;;;17.62;40.13;100468.38;5050476;28;20488;-73
2022/04/24 02:52:32;;;;;;;13.83;8.80;;;;;;;17.84;39.69;100470.06;5052575;28;20079;-73
2022/04/24 02:54:57;;;;;;;14.23;8.50;;;;;;;16.96;40.99;100472.97;5050495;28;20056;-73
2022/04/24 02:57:22;;;;;;;17.73;9.20;;;;;;;17.20;41.40;100474.63;5051818;28;20110;-73
2022/04/24 02:59:50;;;;;;;12.93;8.17;;;;;;;16.28;42.60;100480.16;5050833;28;20021;-74
2022/04/24 03:02:16;;;;;;;17.77;8.93;;;;;;;17.69;40.11;100477.75;5052331;28;20021;-73
2022/04/24 03:04:45;;;;;;;15.63;8.80;;;;;;;17.45;40.75;100469.16;5049974;28;20025;-73
2022/04/24 03:07:11;;;;;;;14.80;9.03;;;;;;;17.26;40.97;100480.50;5050827;28;20027;-73
2022/04/24 03:09:36;;;;;;;14.50;9.20;;;;;;;17.38;40.70;100473.84;5049992;28;20025;-73
2022/04/24 03:12:02;;;;;;;15.03;8.97;;;;;;;17.32;40.92;100479.38;5050675;28;20020;-73
2022/04/24 03:14:27;;;;;;;15.23;9.13;;;;;;;17.38;40.86;100473.84;5050603;28;20397;-73
2022/04/24 03:16:52;;;;;;;15.90;8.97;;;;;;;18.22;39.59;100480.66;5049781;28;20477;-73
2022/04/24 03:19:18;;;;;;;14.83;9.00;;;;;;;17.18;40.93;100481.78;5052324;28;20025;-73
2022/04/24 03:21:44;;;;;;;14.00;8.60;;;;;;;16.53;42.26;100480.00;5050454;28;20114;-73
2022/04/24 03:24:09;;;;;;;15.60;9.10;;;;;;;17.20;41.62;100482.56;5050189;28;20485;-73
2022/04/24 03:26:37;;;;;;;13.57;8.40;;;;;;;16.31;42.88;100484.41;5050440;28;20017;-73
2022/04/24 03:29:03;;;;;;;12.07;8.03;;;;;;;16.64;42.34;100482.22;5050334;28;20037;-73
2022/04/24 03:31:28;;;;;;;13.90;8.63;;;;;;;16.99;42.03;100477.28;5049506;28;20031;-73
2022/04/24 03:33:54;;;;;;;12.63;8.40;;;;;;;16.79;42.01;100476.31;5049447;28;20035;-73
2022/04/24 03:36:19;;;;;;;14.90;9.00;;;;;;;17.43;40.71;100465.72;5050314;28;20021;-73
2022/04/24 03:38:45;;;;;;;15.43;9.03;;;;;;;17.75;39.67;100473.97;5048752;28;20070;-73
2022/04/24 03:41:10;;;;;;;16.37;8.97;;;;;;;17.24;40.92;100460.38;5050241;28;20044;-73
2022/04/24 03:43:36;;;;;;;15.23;8.50;;;;;;;16.89;40.94;100462.75;5050882;28;20021;-73
2022/04/24 03:46:01;;;;;;;14.60;8.70;;;;;;;16.86;41.12;100471.63;5049237;28;20119;-74
2022/04/24 03:48:26;;;;;;;14.13;8.57;;;;;;;16.91;42.16;100463.53;5049970;28;20067;-72
2022/04/24 03:50:52;;;;;;;10.83;7.70;;;;;;;17.72;39.60;100461.78;5049469;28;20375;-73
2022/04/24 03:53:18;;;;;;;11.37;7.37;;;;;;;17.24;41.03;100465.66;5050688;28;20031;-73
2022/04/24 03:55:43;;;;;;;13.90;8.00;;;;;;;17.61;40.01;100464.03;5050555;28;20446;-72
2022/04/24 03:58:08;;;;;;;15.07;8.10;;;;;;;17.34;40.66;100474.03;5049536;28;20029;-73
2022/04/24 04:00:34;;;;;;;13.00;8.33;;;;;;;17.36;40.38;100470.41;5050466;28;20441;-73
2022/04/24 04:02:59;;;;;;;13.93;8.37;;;;;;;17.30;40.56;100460.13;5049351;28;20122;-73
2022/04/24 04:05:25;;;;;;;11.33;7.60;;;;;;;17.44;39.84;100463.00;5049641;28;20017;-73
2022/04/24 04:07:50;;;;;;;13.67;7.57;;;;;;;16.95;41.63;100467.78;5048622;28;20473;-73
2022/04/24 04:10:15;;;;;;;12.50;7.67;;;;;;;16.71;41.46;100473.13;5032821;28;20029;-73
2022/04/24 04:12:41;;;;;;;13.80;7.73;;;;;;;17.38;40.45;100465.94;5050333;28;20025;-73
2022/04/24 04:15:07;;;;;;;13.07;7.07;;;;;;;17.18;40.32;100465.94;5050297;28;20496;-74
2022/04/24 04:17:32;;;;;;;12.90;8.20;;;;;;;17.13;40.87;100469.63;5049146;28;20044;-73
2022/04/24 04:19:59;;;;;;;14.77;8.07;;;;;;;17.22;40.53;100472.81;5049092;28;20025;-73
2022/04/24 04:22:24;;;;;;;11.83;6.93;;;;;;;16.81;41.10;100485.94;5049091;28;20043;-73
2022/04/24 04:24:51;;;;;;;15.13;7.57;;;;;;;17.37;40.16;100474.75;5048545;28;20020;-73
2022/04/24 04:27:17;;;;;;;11.93;7.30;;;;;;;16.89;41.10;100479.44;5049973;28;20559;-73
2022/04/24 04:29:42;;;;;;;14.43;7.47;;;;;;;17.25;40.08;100483.22;5048741;28;20183;-73
2022/04/24 04:32:08;;;;;;;9.67;6.47;;;;;;;17.29;39.49;100490.09;5049188;28;20401;-73
2022/04/24 04:34:33;;;;;;;12.97;7.43;;;;;;;17.74;38.81;100483.69;5047658;28;20020;-74
2022/04/24 04:36:59;;;;;;;12.60;7.17;;;;;;;17.09;39.89;100481.25;5048790;28;20111;-74
2022/04/24 04:39:24;;;;;;;14.97;8.27;;;;;;;16.78;41.43;100479.84;5049211;28;20135;-73
2022/04/24 04:41:50;;;;;;;10.23;6.73;;;;;;;16.57;40.95;100480.75;5049321;28;20388;-73
2022/04/24 04:44:15;;;;;;;12.00;6.93;;;;;;;17.55;39.48;100482.81;5049289;28;20029;-73
2022/04/24 04:46:40;;;;;;;13.10;6.87;;;;;;;17.26;39.85;100485.78;5049647;28;20029;-73
2022/04/24 04:49:06;;;;;;;12.47;6.87;;;;;;;15.90;42.30;100495.66;5049781;28;20017;-73
2022/04/24 04:51:31;;;;;;;12.37;7.17;;;;;;;17.36;40.03;100491.53;5050064;28;20025;-73
2022/04/24 04:53:56;;;;;;;10.67;6.50;;;;;;;17.43;39.61;100493.00;5048732;28;20017;-73
2022/04/24 04:56:23;;;;;;;15.60;7.57;;;;;;;17.20;40.09;100493.13;5048377;28;20511;-73
2022/04/24 04:58:48;;;;;;;13.97;6.90;;;;;;;17.22;39.58;100494.78;5048818;28;20108;-73
2022/04/24 05:01:14;;;;;;;9.73;6.90;;;;;;;17.77;38.86;100495.91;5050261;28;20140;-74
2022/04/24 05:03:39;;;;;;;10.80;6.70;;;;;;;17.32;40.09;100505.81;5047611;28;20079;-73
2022/04/24 05:06:05;;;;;;;9.63;6.07;;;;;;;16.99;40.19;100503.66;5050286;28;20078;-75
2022/04/24 05:08:30;;;;;;;11.73;6.73;;;;;;;17.41;40.18;100505.41;5048554;28;20044;-73
2022/04/24 05:10:56;;;;;;;12.43;6.77;;;;;;;17.76;38.94;100510.94;5048224;28;20060;-74
2022/04/24 05:13:21;;;;;;;10.43;6.47;;;;;;;17.77;39.16;100507.34;5050247;28;20492;-73
2022/04/24 05:15:46;;;;;;;8.17;6.10;;;;;;;17.19;40.23;100515.19;5048367;28;20032;-73
2022/04/24 05:18:12;;;;;;;11.73;6.03;;;;;;;17.46;39.79;100519.28;5048072;28;20028;-73
2022/04/24 05:20:37;;;;;;;10.43;5.90;;;;;;;16.99;41.02;100523.94;5049405;28;20393;-74
2022/04/24 05:23:07;;;;;;;10.20;6.60;;;;;;;17.31;39.96;100522.59;5050128;28;20025;-73
2022/04/24 05:25:33;;;;;;;9.90;5.93;;;;;;;16.29;42.26;100526.69;5049271;28;20033;-73
2022/04/24 05:28:00;;;;;;;10.73;6.50;;;;;;;16.61;41.17;100535.13;5048522;28;20017;-73
2022/04/24 05:30:27;;;;;;;8.67;5.97;;;;;;;15.86;43.08;100526.53;5048031;28;20489;-73
2022/04/24 05:32:52;;;;;;;9.77;6.30;;;;;;;15.88;43.24;100523.81;5048015;28;20037;-73
2022/04/24 05:35:18;;;;;;;9.70;6.27;;;;;;;17.20;40.48;100532.75;5049011;28;20027;-73
2022/04/24 05:37:50;;;;;;;10.53;6.10;;;;;;;16.29;41.56;100529.31;5049255;28;20082;-73
2022/04/24 05:40:16;;;;;;;11.27;5.70;;;;;;;17.17;40.96;100543.44;5050062;28;20017;-73
2022/04/24 05:42:46;;;;;;;10.07;5.87;;;;;;;16.98;41.18;100540.69;5048144;28;20028;-73
2022/04/24 05:45:14;;;;;;;9.00;6.10;;;;;;;17.09;40.59;100535.81;5050408;28;20024;-73
2022/04/24 05:47:42;;;;;;;9.53;5.93;;;;;;;17.41;39.69;100529.19;5053060;28;20048;-72
2022/04/24 05:50:08;;;;;;;8.37;5.77;;;;;;;17.77;39.04;100539.06;5053760;28;20025;-73
2022/04/24 05:52:33;;;;;;;8.67;5.90;;;;;;;17.19;39.61;100536.31;5051338;28;20031;-73
2022/04/24 05:54:58;;;;;;;8.87;6.03;;;;;;;17.18;40.40;100550.44;5035203;28;20437;-73
2022/04/24 05:57:23;;;;;;;10.53;5.90;;;;;;;17.42;39.78;100548.53;5035154;28;20017;-73
2022/04/24 05:59:49;;;;;;;10.50;6.60;;;;;;;17.00;40.20;100539.72;5052362;28;20476;-73
2022/04/24 06:02:14;;;;;;;9.63;6.33;;;;;;;18.22;37.82;100538.88;5052051;28;20021;-74
2022/04/24 06:04:39;;;;;;;9.53;5.90;;;;;;;18.58;37.73;100551.28;5052937;28;20025;-73
2022/04/24 06:07:05;;;;;;;12.47;6.13;;;;;;;17.06;39.56;100547.41;5051399;28;20445;-73
2022/04/24 06:09:30;;;;;;;12.87;5.93;;;;;;;18.34;37.54;100553.28;5051812;28;20053;-73
2022/04/24 06:12:00;;;;;;;9.30;5.90;;;;;;;18.21;37.77;100558.31;5051583;28;20028;-73
2022/04/24 06:14:26;;;;;;;9.13;5.57;;;;;;;18.01;38.39;100552.16;5052317;28;20025;-73
2022/04/24 06:16:51;;;;;;;10.73;5.93;;;;;;;18.01;37.95;100551.28;5051298;28;20100;-72
2022/04/24 06:19:17;;;;;;;8.87;6.13;;;;;;;17.84;38.93;100562.59;5053317;28;20096;-74
2022/04/24 06:21:42;;;;;;;7.83;5.40;;;;;;;17.13;39.64;100559.41;5050274;28;20066;-73
2022/04/24 06:24:08;;;;;;;8.80;5.40;;;;;;;16.62;41.77;100564.09;5035128;28;20029;-73
2022/04/24 06:26:33;;;;;;;10.17;5.70;;;;;;;17.63;39.16;100558.16;5051075;28;20025;-73
2022/04/24 06:28:58;;;;;;;9.83;6.03;;;;;;;17.74;39.08;100560.34;5051223;28;20078;-73
2022/04/24 06:31:24;;;;;;;7.77;5.43;;;;;;;17.84;38.55;100560.78;5051692;28;20500;-73
2022/04/24 06:33:49;;;;;;;11.47;5.13;;;;;;;16.86;40.62;100569.28;5050526;28;20059;-73
2022/04/24 06:36:14;;;;;;;9.47;5.80;;;;;;;18.17;38.24;100557.56;5051403;28;20607;-73
2022/04/24 06:38:40;;;;;;;8.10;5.07;;;;;;;17.12;40.25;100572.69;5051023;28;20556;-73
2022/04/24 06:41:05;;;;;;;8.37;4.87;;;;;;;18.00;38.16;100561.00;5050750;28;20051;-73
2022/04/24 06:43:30;;;;;;;8.13;5.27;;;;;;;18.34;38.09;100564.75;5051225;28;20507;-74
2022/04/24 06:45:56;;;;;;;9.30;5.90;;;;;;;17.78;38.89;100561.94;5052396;28;20047;-73
2022/04/24 06:48:21;;;;;;;7.30;5.23;;;;;;;17.63;38.66;100562.59;5052031;28;20039;-73
2022/04/24 06:50:47;;;;;;;11.63;5.63;;;;;;;19.24;36.41;100565.75;5052050;28;20013;-73
2022/04/24 06:53:18;;;;;;;8.40;5.07;;;;;;;18.19;37.90;100561.03;5051269;28;20086;-73
2022/04/24 06:55:45;;;;;;;7.70;5.17;;;;;;;17.87;38.29;100573.00;5049264;28;20480;-74
2022/04/24 06:58:13;;;;;;;8.53;5.10;;;;;;;17.32;38.78;100579.75;5051035;28;20017;-74
2022/04/24 07:00:41;;;;;;;5.87;3.73;;;;;;;16.39;40.88;100575.53;5050720;28;20024;-73
2022/04/24 07:03:20;;;;;;;7.93;5.00;;;;;;;18.06;37.79;100566.00;5050358;28;20045;-73
2022/04/24 07:05:47;;;;;;;8.67;5.90;;;;;;;18.94;36.57;100568.97;5050553;28;20028;-73
2022/04/24 07:08:12;;;;;;;9.93;5.37;;;;;;;19.32;35.82;100571.50;5050714;28;20233;-73
2022/04/24 07:10:38;;;;;;;9.30;5.47;;;;;;;18.15;37.16;100575.31;5049726;28;20392;-73
2022/04/24 07:13:04;;;;;;;7.03;5.00;;;;;;;19.86;35.17;100578.50;5050785;28;20029;-73
2022/04/24 07:15:32;;;;;;;6.78;4.63;;;;;;;21.95;31.75;100570.19;5050728;28;20029;-73
2022/04/24 07:17:58;;;;;;;8.77;4.43;;;;;;;24.02;28.31;100561.97;5033561;28;20036;-73
2022/04/24 07:20:24;;;;;;;7.15;4.60;;;;;;;25.80;25.77;100568.41;5050682;28;20394;-73
2022/04/24 07:22:54;;;;;;;5.85;4.20;;;;;;;26.64;24.53;100572.47;5032971;28;20297;-73
2022/04/24 07:25:25;;;;;;;7.55;4.18;;;;;;;24.64;26.79;100573.59;5050668;28;20056;-73
2022/04/24 07:27:51;;;;;;;7.20;4.65;;;;;;;25.06;26.44;100579.38;5050014;28;20437;-73
2022/04/24 07:30:18;;;;;;;5.07;3.95;;;;;;;25.15;25.52;100583.19;5049970;28;20440;-73
2022/04/24 07:32:55;;;;;;;5.05;4.07;;;;;;;26.63;24.08;100581.50;5017008;28;20511;-73
2022/04/24 07:35:23;;;;;;;6.60;4.15;;;;;;;26.44;24.48;100580.31;5050315;28;20449;-73
2022/04/24 07:37:49;;;;;;;5.07;4.38;;;;;;;25.05;25.57;100572.31;5049218;28;20384;-74
2022/04/24 07:40:17;;;;;;;7.22;4.47;;;;;;;24.68;26.57;100585.75;5051698;28;20026;-73
2022/04/24 07:42:44;;;;;;;7.30;4.18;;;;;;;25.87;24.81;100585.69;5049571;28;20029;-74
2022/04/24 07:45:09;;;;;;;5.20;4.20;;;;;;;25.97;24.65;100590.31;5049580;28;20056;-73
2022/04/24 07:47:37;;;;;;;5.45;4.13;;;;;;;26.86;23.52;100591.22;5049454;28;20017;-73
2022/04/24 07:50:03;;;;;;;7.40;4.07;;;;;;;27.21;22.57;100587.41;5050974;28;20032;-73
2022/04/24 07:52:28;;;;;;;4.88;4.32;;;;;;;25.86;24.05;100589.31;5049048;28;20028;-73
2022/04/24 07:54:54;;;;;;;5.30;4.15;;;;;;;26.05;23.90;100588.75;5050664;28;20133;-73
2022/04/24 07:57:19;;;;;;;7.57;4.47;;;;;;;27.98;22.11;100584.50;5049937;28;20131;-73
2022/04/24 07:59:44;;;;;;;8.52;4.50;;;;;;;26.71;23.49;100589.81;5048746;28;20163;-74
2022/04/24 08:02:10;;;;;;;6.45;3.72;;;;;;;27.68;22.90;100594.25;5050057;28;20021;-73
2022/04/24 08:04:36;;;;;;;4.60;4.07;;;;;;;28.49;21.69;100594.31;5049135;28;20388;-73
2022/04/24 08:07:02;;;;;;;5.38;4.18;;;;;;;28.49;21.20;100591.63;5050462;28;20033;-73
2022/04/24 08:09:27;;;;;;;5.43;4.13;;;;;;;27.42;22.37;100600.00;5049614;28;20028;-73
2022/04/24 08:11:52;;;;;;;5.32;4.32;;;;;;;27.72;21.94;100601.91;5050247;28;20032;-73
2022/04/24 08:14:19;;;;;;;4.25;3.85;;;;;;;29.06;21.65;100596.44;5048465;28;20116;-74
2022/04/24 08:16:45;;;;;;;6.15;4.00;;;;;;;28.44;21.86;100600.13;5032531;28;20043;-74
2022/04/24 08:19:10;;;;;;;4.22;3.72;;;;;;;29.81;21.04;100596.59;5048871;28;20021;-74
2022/04/24 08:21:36;;;;;;;4.32;3.78;;;;;;;30.79;19.78;100601.56;5048817;28;20053;-74
2022/04/24 08:24:01;;;;;;;4.68;4.18;;;;;;;27.51;21.90;100620.69;5049351;28;20025;-73
2022/04/24 08:26:26;;;;;;;4.60;3.72;;;;;;;27.54;22.43;100615.06;5048827;28;20547;-73
2022/04/24 08:28:52;;;;;;;6.22;4.20;;;;;;;28.96;21.62;100617.06;5048873;28;20484;-74
2022/04/24 08:31:17;;;;;;;5.47;4.10;;;;;;;29.37;21.21;100617.81;5050884;28;20090;-73
2022/04/24 08:33:42;;;;;;;8.43;4.35;;;;;;;28.75;21.21;100620.72;5048052;28;20507;-73
2022/04/24 08:36:08;;;;;;;12.30;4.40;;;;;;;29.90;19.92;100617.31;5049268;28;20480;-74
2022/04/24 08:38:33;;;;;;;4.15;3.75;;;;;;;29.22;20.99;100620.91;5048792;28;20106;-73
2022/04/24 08:40:59;;;;;;;6.70;4.28;;;;;;;30.70;19.11;100626.75;5049953;28;20453;-73
2022/04/24 08:43:24;;;;;;;5.13;4.28;;;;;;;28.27;21.40;100625.81;5049406;28;20504;-73
2022/04/24 08:45:51;;;;;;;4.85;4.35;;;;;;;29.55;20.49;100624.19;5048610;28;20025;-74
2022/04/24 08:48:18;;;;;;;7.97;4.28;;;;;;;28.98;20.72;100625.88;5048276;28;20100;-73
2022/04/24 08:50:44;;;;;;;7.45;4.68;;;;;;;29.04;21.03;100631.50;5048672;28;20048;-73
2022/04/24 08:53:11;;;;;;;4.88;3.90;;;;;;;27.61;21.94;100630.66;5050524;28;20021;-74
2022/04/24 08:55:36;;;;;;;7.25;4.30;;;;;;;29.18;20.49;100632.97;5047836;28;20106;-73
2022/04/24 08:58:02;;;;;;;4.35;3.78;;;;;;;30.11;19.04;100635.09;5048945;28;20044;-73
2022/04/24 09:00:29;;;;;;;8.60;4.40;;;;;;;31.23;18.56;100636.75;5050318;28;20044;-73
2022/04/24 09:02:57;;;;;;;5.07;4.43;;;;;;;32.05;17.96;100635.66;5048143;28;20028;-73
2022/04/24 09:05:23;;;;;;;4.82;4.05;;;;;;;30.48;18.82;100636.13;5050341;28;20044;-73
2022/04/24 09:07:48;;;;;;;6.10;4.32;;;;;;;31.53;18.88;100633.78;5049892;28;20029;-74
2022/04/24 09:10:14;;;;;;;5.80;4.32;;;;;;;30.48;18.95;100636.94;5049330;28;20040;-73
2022/04/24 09:12:40;;;;;;;6.70;3.95;;;;;;;30.82;20.31;100632.75;5048559;28;20127;-73
2022/04/24 09:15:07;;;;;;;6.25;4.30;;;;;;;28.99;20.63;100638.31;5049041;28;20033;-73
2022/04/24 09:17:34;;;;;;;6.70;4.13;;;;;;;30.20;19.86;100628.84;5047996;28;20904;-73
2022/04/24 09:20:01;;;;;;;6.47;4.10;;;;;;;29.14;20.70;100642.31;5050664;28;20028;-73
2022/04/24 09:22:27;;;;;;;5.68;4.68;;;;;;;30.97;19.41;100642.03;5053414;28;20516;-73
2022/04/24 09:24:59;;;;;;;4.50;3.95;;;;;;;30.12;19.43;100636.81;5052379;28;20027;-74
2022/04/24 09:27:24;;;;;;;4.60;4.07;;;;;;;27.85;21.87;100647.34;5052867;28;20480;-73
2022/04/24 09:29:55;;;;;;;6.45;4.70;;;;;;;29.13;20.32;100645.97;5051355;28;20033;-72
2022/04/24 09:32:25;;;;;;;4.82;4.32;;;;;;;28.87;20.53;100646.50;5054069;28;20028;-74
2022/04/24 09:34:51;;;;;;;6.22;4.30;;;;;;;28.03;21.96;100662.91;5052292;28;20399;-73
2022/04/24 09:37:17;;;;;;;4.97;3.78;;;;;;;27.58;22.55;100656.75;5051911;28;20107;-73
2022/04/24 09:39:43;;;;;;;5.47;4.20;;;;;;;29.94;20.81;100648.34;5053129;28;20091;-73
2022/04/24 09:42:14;;;;;;;5.97;4.32;;;;;;;30.62;19.16;100641.00;5052660;28;20020;-73
2022/04/24 09:44:47;;;;;;;4.82;3.95;;;;;;;29.51;20.02;100638.91;5052555;28;20469;-73
2022/04/24 09:47:13;;;;;;;5.00;4.10;;;;;;;29.71;21.09;100638.88;5052402;28;20314;-73
2022/04/24 09:49:45;;;;;;;6.50;4.15;;;;;;;29.71;19.94;100639.72;5051760;28;20021;-74
2022/04/24 09:52:11;;;;;;;5.20;4.50;;;;;;;29.30;20.55;100651.69;5053348;28;20021;-74
2022/04/24 09:54:42;;;;;;;6.43;4.05;;;;;;;30.56;19.29;100650.53;5053118;28;20024;-75
2022/04/24 09:57:09;;;;;;;4.85;4.30;;;;;;;29.78;20.92;100650.75;5053565;28;20036;-73
2022/04/24 09:59:37;;;;;;;6.90;4.40;;;;;;;29.11;21.22;100650.63;5067726;28;20032;-73
2022/04/24 10:02:04;;;;;;;4.50;4.10;;;;;;;29.69;20.95;100643.53;5052072;28;20501;-73
2022/04/24 10:04:34;;;;;;;6.28;4.43;;;;;;;31.73;18.75;100653.38;5035390;28;20033;-73
2022/04/24 10:07:00;;;;;;;5.10;4.28;;;;;;;30.66;19.97;100644.25;5051078;28;20071;-74
2022/04/24 10:09:27;;;;;;;4.95;3.78;;;;;;;30.15;19.52;100651.84;5051687;28;20024;-73
2022/04/24 10:11:52;;;;;;;5.85;4.05;;;;;;;31.10;19.59;100639.00;5050766;28;20086;-73
2022/04/24 10:14:19;;;;;;;7.43;4.40;;;;;;;30.73;19.59;100646.16;5051827;28;20427;-73
2022/04/24 10:17:13;;;;;;;4.53;4.10;;;;;;;30.20;20.11;100652.22;5051306;28;20048;-73
2022/04/24 10:20:16;;;;;;;5.47;4.30;;;;;;;31.65;18.71;100650.63;5035888;28;20033;-72
2022/04/24 10:22:47;;;;;;;4.45;3.95;;;;;;;29.98;19.85;100658.81;5051071;28;20045;-73
2022/04/24 10:25:17;;;;;;;4.72;4.25;;;;;;;29.95;20.54;100662.66;5051643;28;20378;-73
2022/04/24 10:27:47;;;;;;;4.82;4.30;;;;;;;28.84;20.43;100654.88;5051752;28;20103;-74
2022/04/24 10:30:23;;;;;;;7.00;4.43;;;;;;;29.41;20.85;100654.22;5050887;28;20033;-73
2022/04/24 10:32:52;;;;;;;6.00;4.53;;;;;;;29.01;20.82;100653.31;5049774;28;20119;-73
2022/04/24 10:35:19;;;;;;;4.65;4.15;;;;;;;31.17;19.30;100658.94;5051843;28;20028;-73
2022/04/24 10:37:47;;;;;;;5.53;4.32;;;;;;;30.58;19.86;100653.94;5050840;28;20025;-73
2022/04/24 10:40:18;;;;;;;4.55;4.07;;;;;;;30.43;20.98;100656.25;5050698;28;20025;-73
2022/04/24 10:42:44;;;;;;;6.30;4.30;;;;;;;29.95;21.32;100652.75;5050696;28;20029;-73
2022/04/24 10:45:19;;;;;;;4.88;4.32;;;;;;;31.14;19.63;100651.16;5051012;28;20431;-73
2022/04/24 10:47:53;;;;;;;5.85;4.60;;;;;;;31.46;19.60;100650.63;5050203;28;20106;-74
2022/04/24 10:50:20;;;;;;;8.85;4.47;;;;;;;30.46;20.35;100660.53;5051052;28;20027;-74
2022/04/24 10:52:52;;;;;;;6.13;4.53;;;;;;;30.89;19.88;100659.00;5051917;28;20017;-75
2022/04/24 10:55:22;;;;;;;6.75;4.40;;;;;;;28.80;21.38;100666.03;5051468;28;20048;-74
2022/04/24 10:57:54;;;;;;;7.32;5.00;;;;;;;30.09;21.14;100659.50;5050592;28;20025;-73
2022/04/24 11:00:26;;;;;;;7.47;4.80;;;;;;;30.61;20.43;100664.41;5034675;28;20024;-73
2022/04/24 11:02:52;;;;;;;6.83;4.77;;;;;;;29.05;21.63;100659.28;5049704;28;20021;-73
2022/04/24 11:05:23;;;;;;;8.25;4.68;;;;;;;30.82;20.43;100660.59;5052038;28;20124;-73
2022/04/24 11:08:01;;;;;;;7.15;4.47;;;;;;;30.06;20.67;100643.63;5051671;28;20118;-72
2022/04/24 11:10:26;;;;;;;6.78;4.82;;;;;;;31.40;19.52;100655.78;5052204;28;20025;-73
2022/04/24 11:12:54;;;;;;;9.32;4.03;;;;;;;29.79;21.19;100655.16;5051638;28;20023;-74
2022/04/24 11:15:19;;;;;;;7.15;4.53;;;;;;;29.37;21.73;100642.88;5049570;28;20025;-73
2022/04/24 11:17:45;;;;;;;8.20;4.88;;;;;;;29.55;21.62;100648.41;5050047;28;20066;-73
2022/04/24 11:20:15;;;;;;;7.55;4.63;;;;;;;28.32;22.43;100654.13;5051988;28;20379;-74